KFSO

Details ICAO KFSO
Name FRANKLIN CO STATE
Region United States
Timezone America/New_York (UTC-4.0)
Plans Departing 68
Arriving 66
Stats Elevation 228 ft / 69 m (AMSL)
Location 44.940290° -73.097460°
Runways 1
Magnetic Variation 14.446° W
Sunrise 2018-05-25 09:15:21 UTC / 2018-05-25 05:15:21 Local
Sunset 2018-05-26 00:26:13 UTC / 2018-05-25 20:26:13 Local
Advertisement - Login to hide

Runways

ID Width Length Bearing (true) Bearing (mag) Surface Threshold Offset Overrun Length
01 60 ft / 18 m 3,002 ft / 915 m 349.49° 3.94° Asphalt 0 ft / 0 m 0 ft / 0 m
19 60 ft / 18 m 3,002 ft / 915 m 169.49° 183.94° Asphalt 0 ft / 0 m 0 ft / 0 m

Map

Weather


0- 5 10 15 20 25 30 35+ Temperature / ° C

Clouds and Precipitation
Forecast for 2018-05-26 00:00 UTC. Updated 3 hours ago

Ground ~20,000 ft ~40,000 ft Winds

METAR

KFSO 260215Z AUTO 17005KT 7SM -DZ BKN048 BKN065 OVC075 18/16 A2971 RMK AO2 T01760162

TAF

Not found

Frequencies

Recorded 119.02 MHz AWOS 3
Approach 121.10 MHz BURLINGTON APP/DEP
Unicom 122.80 MHz CTAF/UNICOM
Approach 126.30 MHz BURLINGTON APP/DEP
Warning: Do not use this data for real-world aviation or navigation. No guarantee of current accuracy is given.